Terminal Aerodrome Forecast
Issued by NWS

Home | Current Version | Previous Version | Graphics & Text | Print | Product List | Glossary On
Versions: 1 2 3 4 5 6 7 8 9 10 11 12 13 14 15
697
FTUS42 KMHX 202338
TAFISO
TAF
KISO 202338Z 2100/2124 21003KT P6SM SCT035
     FM210800 00000KT 4SM BR SCT080
     FM211200 01004KT P6SM SCT040 BKN070
     FM211800 VRB04KT P6SM VCSH BKN040
      AMD LTD TO CLD VIS AND WIND=

USA.gov is the U.S. government's official web portal to all federal, state and local government web resources and services.